createdAt,value
2022-11-28T00:01:41.310Z,15.23
2022-11-28T00:04:08.997Z,13.82
2022-11-28T00:06:40.840Z,15.75
2022-11-28T00:09:08.360Z,15.90
2022-11-28T00:11:35.076Z,17.42
2022-11-28T00:14:01.678Z,14.93
2022-11-28T00:16:28.289Z,16.20
2022-11-28T00:18:55.131Z,15.40
2022-11-28T00:21:22.850Z,14.52
2022-11-28T00:23:50.343Z,14.90
2022-11-28T00:26:21.107Z,15.70
2022-11-28T00:28:48.293Z,15.55
2022-11-28T00:31:26.824Z,18.00
2022-11-28T00:33:53.835Z,16.33
2022-11-28T00:36:21.477Z,16.90
2022-11-28T00:38:48.414Z,16.70
2022-11-28T00:41:23.054Z,15.77
2022-11-28T00:43:50.731Z,14.50
2022-11-28T00:46:18.858Z,16.23
2022-11-28T00:48:45.713Z,14.65
2022-11-28T00:51:14.980Z,14.93
2022-11-28T00:53:43.326Z,14.88
2022-11-28T00:56:12.844Z,15.48
2022-11-28T00:58:40.270Z,15.13
2022-11-28T01:01:14.633Z,15.15
2022-11-28T01:03:42.144Z,16.70
2022-11-28T01:06:10.380Z,16.48
2022-11-28T01:08:37.356Z,15.85
2022-11-28T01:11:10.389Z,16.70
2022-11-28T01:13:36.923Z,15.05
2022-11-28T01:16:03.863Z,17.23
2022-11-28T01:18:30.467Z,18.02
2022-11-28T01:20:57.146Z,16.52
2022-11-28T01:23:23.819Z,17.83
2022-11-28T01:25:50.473Z,15.52
2022-11-28T01:28:16.990Z,16.42
2022-11-28T01:30:43.545Z,16.75
2022-11-28T01:33:10.116Z,16.40
2022-11-28T01:35:36.680Z,17.63
2022-11-28T01:38:03.280Z,17.52
2022-11-28T01:40:29.939Z,17.20
2022-11-28T01:42:56.564Z,17.00
2022-11-28T01:45:27.965Z,15.88
2022-11-28T01:47:58.743Z,16.70
2022-11-28T01:50:26.799Z,15.55
2022-11-28T01:52:57.715Z,17.60
2022-11-28T01:55:28.595Z,15.32
2022-11-28T01:57:56.131Z,15.57
2022-11-28T02:00:22.888Z,16.50
2022-11-28T02:03:05.557Z,17.38
2022-11-28T02:05:32.766Z,18.02
2022-11-28T02:07:59.623Z,17.92
2022-11-28T02:10:56.742Z,17.55
2022-11-28T02:13:45.376Z,18.27
2022-11-28T02:16:20.908Z,16.88
2022-11-28T02:19:08.881Z,19.35
2022-11-28T02:21:49.529Z,19.63
2022-11-28T02:25:14.550Z,17.58
2022-11-28T02:27:55.227Z,18.73
2022-11-28T02:30:29.198Z,20.27
2022-11-28T02:33:03.054Z,21.48
2022-11-28T02:35:51.345Z,20.58
2022-11-28T02:38:50.133Z,20.83
2022-11-28T02:41:38.667Z,17.50
2022-11-28T02:44:11.186Z,17.60
2022-11-28T02:46:58.939Z,18.55
2022-11-28T02:49:38.415Z,17.35
2022-11-28T02:52:10.261Z,17.10
2022-11-28T02:54:39.643Z,16.98
2022-11-28T02:57:06.358Z,16.63
2022-11-28T02:59:38.630Z,18.88
2022-11-28T03:02:13.319Z,15.57
2022-11-28T03:05:05.729Z,19.17
2022-11-28T03:08:01.172Z,19.52
2022-11-28T03:10:46.355Z,16.98
2022-11-28T03:13:15.857Z,18.60
2022-11-28T03:16:11.202Z,18.02
2022-11-28T03:18:50.771Z,16.77
2022-11-28T03:21:32.969Z,18.08
2022-11-28T03:24:30.014Z,18.98
2022-11-28T03:27:08.835Z,19.30
2022-11-28T03:29:48.764Z,17.70
2022-11-28T03:32:22.932Z,14.68
2022-11-28T03:34:56.526Z,17.30
2022-11-28T03:37:33.952Z,16.83
2022-11-28T03:40:05.597Z,17.58
2022-11-28T03:42:40.496Z,16.63
2022-11-28T03:45:25.055Z,16.67
2022-11-28T03:47:59.414Z,18.27
2022-11-28T03:50:33.981Z,15.55
2022-11-28T03:53:05.983Z,16.55
2022-11-28T03:55:39.817Z,17.75
2022-11-28T03:58:09.336Z,16.30
2022-11-28T04:00:42.574Z,17.02
2022-11-28T04:03:24.494Z,18.67
2022-11-28T04:06:02.444Z,19.75
2022-11-28T04:09:03.586Z,21.05
2022-11-28T04:11:45.117Z,20.00
2022-11-28T04:14:29.471Z,17.67
2022-11-28T04:17:10.222Z,18.67
2022-11-28T04:22:27.305Z,18.23
2022-11-28T04:25:10.159Z,18.60
2022-11-28T04:27:44.134Z,19.35
2022-11-28T04:30:12.540Z,20.77
2022-11-28T04:32:46.324Z,18.40
2022-11-28T04:35:20.350Z,21.73
2022-11-28T04:37:49.215Z,22.27
2022-11-28T04:40:17.256Z,22.40
2022-11-28T04:42:55.868Z,20.83
2022-11-28T04:45:29.439Z,20.17
2022-11-28T04:47:56.426Z,19.52
2022-11-28T04:50:25.627Z,23.35
2022-11-28T04:52:57.035Z,23.00
2022-11-28T04:55:42.260Z,21.38
2022-11-28T04:58:16.365Z,20.35
2022-11-28T05:00:44.300Z,21.95
2022-11-28T05:03:11.270Z,20.48
2022-11-28T05:05:51.491Z,22.75
2022-11-28T05:08:19.024Z,21.42
2022-11-28T05:10:46.715Z,24.25
2022-11-28T05:13:13.759Z,19.55
2022-11-28T05:15:40.337Z,21.48
2022-11-28T05:18:06.942Z,19.35
2022-11-28T05:20:34.401Z,22.58
2022-11-28T05:23:00.937Z,21.38
2022-11-28T05:25:27.509Z,21.65
2022-11-28T05:27:54.055Z,19.80
2022-11-28T05:30:20.759Z,22.88
2022-11-28T05:32:47.746Z,20.70
2022-11-28T05:35:14.356Z,19.77
2022-11-28T05:37:41.098Z,22.60
2022-11-28T05:40:08.328Z,22.00
2022-11-28T05:42:35.892Z,19.88
2022-11-28T05:45:03.226Z,19.88
2022-11-28T05:47:31.789Z,19.17
2022-11-28T05:49:58.489Z,20.05
2022-11-28T05:52:25.095Z,20.50
2022-11-28T05:54:51.602Z,21.23
2022-11-28T05:57:18.187Z,21.48
2022-11-28T05:59:45.180Z,22.40
2022-11-28T06:02:12.029Z,23.13
2022-11-28T06:04:41.722Z,20.25
2022-11-28T06:07:08.752Z,20.73
2022-11-28T06:09:35.329Z,21.75
2022-11-28T06:12:02.071Z,24.27
2022-11-28T06:14:28.695Z,21.42
2022-11-28T06:16:55.319Z,20.88
2022-11-28T06:19:21.916Z,23.60
2022-11-28T06:21:50.941Z,22.42
2022-11-28T06:24:17.909Z,20.40
2022-11-28T06:26:44.529Z,21.52
2022-11-28T06:29:11.069Z,24.52
2022-11-28T06:31:37.657Z,20.95
2022-11-28T06:34:04.275Z,22.20
2022-11-28T06:36:31.009Z,21.48
2022-11-28T06:38:57.779Z,21.67
2022-11-28T06:41:24.371Z,22.90
2022-11-28T06:43:51.028Z,23.13
2022-11-28T06:46:20.587Z,24.40
2022-11-28T06:48:48.734Z,22.75
2022-11-28T06:51:16.271Z,22.13
2022-11-28T06:53:43.246Z,25.83
2022-11-28T06:56:14.042Z,23.63
2022-11-28T06:58:41.630Z,26.30
2022-11-28T07:01:11.916Z,23.70
2022-11-28T07:03:39.475Z,20.95
2022-11-28T07:06:06.968Z,23.05
2022-11-28T07:08:34.473Z,20.70
2022-11-28T07:11:21.966Z,21.55
2022-11-28T07:13:49.750Z,19.42
2022-11-28T07:16:19.960Z,22.67
2022-11-28T07:18:47.054Z,20.23
2022-11-28T07:21:14.813Z,20.63
2022-11-28T07:23:42.797Z,21.02
2022-11-28T07:26:11.355Z,21.35
2022-11-28T07:28:38.144Z,22.60
2022-11-28T07:31:07.625Z,23.38
2022-11-28T07:33:35.351Z,21.58
2022-11-28T07:36:08.190Z,23.63
2022-11-28T07:38:34.826Z,22.45
2022-11-28T07:41:12.987Z,23.95
2022-11-28T07:43:40.814Z,23.83
2022-11-28T07:46:09.409Z,21.40
2022-11-28T07:48:36.366Z,20.77
2022-11-28T07:51:08.170Z,22.30
2022-11-28T07:53:35.434Z,22.95
2022-11-28T07:56:06.977Z,23.30
2022-11-28T07:58:35.368Z,21.50
2022-11-28T08:01:12.380Z,24.08
2022-11-28T08:03:38.885Z,32.92
2022-11-28T08:06:06.545Z,20.52
2022-11-28T08:08:33.608Z,20.35
2022-11-28T08:11:02.162Z,21.88
2022-11-28T08:13:29.353Z,21.50
2022-11-28T08:15:56.006Z,22.85
2022-11-28T08:18:23.156Z,21.52
2022-11-28T08:20:50.437Z,21.00
2022-11-28T08:23:16.986Z,20.52
2022-11-28T08:25:43.569Z,22.38
2022-11-28T08:28:10.346Z,24.10
2022-11-28T08:30:36.900Z,25.90
2022-11-28T08:33:04.077Z,25.45
2022-11-28T08:35:31.219Z,46.63
2022-11-28T08:38:01.753Z,26.90
2022-11-28T08:40:28.971Z,24.40
2022-11-28T08:42:55.907Z,23.65
2022-11-28T08:45:22.535Z,22.58
2022-11-28T08:47:49.132Z,24.15
2022-11-28T08:50:15.860Z,20.70
2022-11-28T08:52:42.391Z,24.73
2022-11-28T08:55:09.299Z,22.15
2022-11-28T08:57:35.852Z,25.42
2022-11-28T09:00:02.551Z,22.50
2022-11-28T09:02:29.125Z,21.50
2022-11-28T09:04:55.717Z,20.80
2022-11-28T09:07:22.376Z,21.50
2022-11-28T09:09:49.264Z,22.65
2022-11-28T09:12:16.269Z,24.25
2022-11-28T09:14:42.829Z,21.05
2022-11-28T09:17:09.479Z,25.15
2022-11-28T09:19:36.117Z,22.83
2022-11-28T09:22:02.626Z,22.92
2022-11-28T09:24:29.183Z,20.88
2022-11-28T09:26:55.763Z,19.52
2022-11-28T09:29:22.409Z,21.55
2022-11-28T09:31:49.021Z,21.55
2022-11-28T09:34:15.907Z,21.92
2022-11-28T09:36:42.461Z,21.45
2022-11-28T09:39:09.151Z,23.00
2022-11-28T09:42:13.753Z,21.88
2022-11-28T09:45:07.161Z,22.40
2022-11-28T09:47:37.218Z,19.83
2022-11-28T09:50:15.380Z,21.35
2022-11-28T09:53:12.965Z,20.58
2022-11-28T09:55:54.580Z,21.33
2022-11-28T09:58:58.992Z,22.02
2022-11-28T10:01:34.407Z,19.23
2022-11-28T10:04:04.043Z,19.27
2022-11-28T10:07:09.382Z,19.13
2022-11-28T10:09:46.627Z,17.33
2022-11-28T10:12:39.106Z,18.48
2022-11-28T10:15:11.640Z,20.40
2022-11-28T10:17:59.456Z,19.38
2022-11-28T10:20:32.192Z,20.50
2022-11-28T10:23:16.729Z,21.15
2022-11-28T10:25:57.128Z,20.60
2022-11-28T10:28:31.659Z,21.25
2022-11-28T10:31:06.913Z,20.80
2022-11-28T10:33:41.759Z,19.88
2022-11-28T10:36:16.392Z,20.20
2022-11-28T10:38:43.834Z,20.48
2022-11-28T10:41:20.791Z,19.25
2022-11-28T10:43:57.593Z,20.60
2022-11-28T10:46:46.852Z,21.27
2022-11-28T10:49:35.213Z,21.23
2022-11-28T10:52:06.795Z,19.70
2022-11-28T10:55:07.483Z,19.45
2022-11-28T10:57:43.421Z,21.50
2022-11-28T11:00:18.376Z,18.60
2022-11-28T11:02:50.830Z,18.58
2022-11-28T11:05:20.600Z,24.02
2022-11-28T11:08:26.917Z,20.57
2022-11-28T11:11:24.123Z,22.35
2022-11-28T11:14:01.975Z,18.15
2022-11-28T11:16:49.295Z,19.08
2022-11-28T11:19:36.858Z,23.10
2022-11-28T11:22:12.517Z,19.38
2022-11-28T11:24:39.063Z,19.70
2022-11-28T11:27:18.346Z,20.60
2022-11-28T11:29:48.158Z,20.50
2022-11-28T11:32:23.643Z,20.10
2022-11-28T11:34:50.633Z,20.85
2022-11-28T11:37:19.418Z,18.70
2022-11-28T11:39:51.656Z,18.70
2022-11-28T11:42:27.348Z,19.27
2022-11-28T11:44:54.484Z,17.95
2022-11-28T11:47:40.893Z,18.73
2022-11-28T11:50:17.546Z,19.70
2022-11-28T11:52:44.537Z,19.42
2022-11-28T11:55:15.911Z,21.92
2022-11-28T11:57:52.802Z,22.30
2022-11-28T12:00:22.469Z,18.30
2022-11-28T12:02:56.909Z,19.67
2022-11-28T12:06:12.656Z,17.42
2022-11-28T12:08:39.455Z,15.48
2022-11-28T12:11:11.106Z,17.45
2022-11-28T12:13:37.740Z,18.90
2022-11-28T12:16:32.029Z,18.73
2022-11-28T12:19:04.536Z,18.88
2022-11-28T12:21:50.695Z,16.88
2022-11-28T12:24:27.076Z,25.92
2022-11-28T12:27:11.915Z,19.20
2022-11-28T12:30:16.235Z,17.88
2022-11-28T12:33:11.927Z,20.38
2022-11-28T12:35:41.594Z,19.63
2022-11-28T12:38:33.715Z,19.92
2022-11-28T12:41:52.791Z,20.77
2022-11-28T12:44:30.595Z,18.75
2022-11-28T12:47:11.391Z,19.50
2022-11-28T12:53:00.005Z,22.58
2022-11-28T12:58:16.720Z,20.00
2022-11-28T13:00:58.495Z,20.75
2022-11-28T13:03:25.125Z,23.83
2022-11-28T13:06:17.103Z,23.00
2022-11-28T13:09:29.438Z,24.73
2022-11-28T13:12:23.012Z,22.38
2022-11-28T13:15:08.580Z,26.85
2022-11-28T13:17:37.725Z,22.85
2022-11-28T13:20:16.374Z,23.42
2022-11-28T13:22:59.705Z,27.42
2022-11-28T13:25:44.947Z,25.17
2022-11-28T13:28:17.634Z,25.23
2022-11-28T13:30:52.949Z,23.25
2022-11-28T13:34:07.810Z,25.10
2022-11-28T13:40:14.684Z,29.67
2022-11-28T13:43:04.029Z,25.73
2022-11-28T13:45:42.237Z,26.73
2022-11-28T13:48:57.625Z,28.98
2022-11-28T13:51:32.708Z,24.08
2022-11-28T13:54:18.193Z,27.02
2022-11-28T13:56:46.360Z,25.65
2022-11-28T13:59:20.085Z,30.98
2022-11-28T14:01:55.905Z,26.45
2022-11-28T14:04:22.748Z,28.38
2022-11-28T14:07:01.118Z,28.35
2022-11-28T14:09:44.870Z,27.02
2022-11-28T14:13:02.609Z,28.63
2022-11-28T14:15:53.976Z,25.48
2022-11-28T14:18:57.136Z,29.98
2022-11-28T14:21:40.061Z,29.92
2022-11-28T14:24:06.603Z,26.70
2022-11-28T14:26:39.542Z,27.83
2022-11-28T14:29:18.770Z,24.23
2022-11-28T14:32:06.580Z,24.25
2022-11-28T14:34:41.842Z,24.02
2022-11-28T14:37:31.451Z,25.65
2022-11-28T14:39:58.108Z,25.77
2022-11-28T14:42:59.131Z,27.38
2022-11-28T14:45:32.577Z,25.73
2022-11-28T14:48:28.009Z,27.73
2022-11-28T14:51:00.997Z,30.02
2022-11-28T14:53:37.054Z,27.98
2022-11-28T14:56:13.761Z,24.77
2022-11-28T14:58:47.229Z,26.10
2022-11-28T15:01:23.054Z,28.00
2022-11-28T15:03:53.887Z,24.83
2022-11-28T15:06:24.912Z,26.73
2022-11-28T15:09:29.188Z,29.08
2022-11-28T15:12:23.101Z,29.35
2022-11-28T15:14:56.587Z,27.20
2022-11-28T15:17:30.644Z,24.77
2022-11-28T15:20:02.518Z,32.65
2022-11-28T15:22:41.136Z,25.63
2022-11-28T15:25:37.506Z,29.40
2022-11-28T15:28:14.999Z,31.20
2022-11-28T15:30:51.332Z,29.73
2022-11-28T15:33:18.741Z,29.20
2022-11-28T15:35:57.136Z,27.30
2022-11-28T15:38:24.197Z,27.20
2022-11-28T15:40:52.683Z,26.17
2022-11-28T15:43:19.707Z,30.88
2022-11-28T15:45:58.866Z,41.90
2022-11-28T15:48:39.323Z,25.73
2022-11-28T15:53:33.640Z,29.90
2022-11-28T15:56:11.361Z,26.20
2022-11-28T15:58:38.328Z,27.48
2022-11-28T16:01:15.288Z,24.67
2022-11-28T16:03:45.747Z,26.65
2022-11-28T16:06:12.816Z,28.77
2022-11-28T16:08:46.024Z,28.20
2022-11-28T16:11:17.542Z,32.10
2022-11-28T16:13:45.412Z,33.58
2022-11-28T16:16:18.067Z,31.88
2022-11-28T16:18:56.246Z,33.10
2022-11-28T16:21:44.611Z,27.40
2022-11-28T16:24:30.245Z,29.23
2022-11-28T16:27:05.462Z,32.20
2022-11-28T16:29:36.705Z,31.77
2022-11-28T16:32:21.954Z,27.70
2022-11-28T16:34:51.141Z,35.88
2022-11-28T16:37:27.575Z,35.25
2022-11-28T16:40:10.730Z,29.70
2022-11-28T16:42:37.330Z,30.13
2022-11-28T16:45:15.869Z,31.10
2022-11-28T16:47:43.709Z,29.85
2022-11-28T16:50:15.602Z,29.00
2022-11-28T16:52:53.794Z,29.63
2022-11-28T16:55:33.128Z,30.77
2022-11-28T16:58:13.191Z,27.48
2022-11-28T17:00:44.237Z,27.20
2022-11-28T17:03:43.267Z,30.38
2022-11-28T17:06:19.280Z,32.75
2022-11-28T17:08:46.125Z,35.28
2022-11-28T17:11:15.744Z,27.85
2022-11-28T17:13:42.886Z,28.40
2022-11-28T17:16:22.149Z,30.92
2022-11-28T17:18:49.588Z,30.13
2022-11-28T17:21:18.962Z,29.05
2022-11-28T17:23:45.638Z,30.63
2022-11-28T17:26:12.248Z,33.67
2022-11-28T17:28:39.083Z,35.45
2022-11-28T17:31:05.964Z,35.80
2022-11-28T17:33:32.596Z,33.08
2022-11-28T17:36:00.123Z,31.58
2022-11-28T17:38:26.771Z,30.33
2022-11-28T17:40:53.595Z,34.40
2022-11-28T17:43:21.960Z,33.08
2022-11-28T17:45:50.680Z,36.42
2022-11-28T17:48:18.035Z,38.65
2022-11-28T17:50:48.051Z,33.67
2022-11-28T17:53:18.229Z,36.72
2022-11-28T17:55:47.147Z,38.95
2022-11-28T17:58:16.244Z,40.08
2022-11-28T18:00:43.735Z,35.35
2022-11-28T18:03:10.450Z,34.35
2022-11-28T18:05:38.761Z,34.92
2022-11-28T18:08:05.449Z,32.90
2022-11-28T18:10:32.019Z,30.45
2022-11-28T18:12:58.608Z,39.03
2022-11-28T18:15:25.270Z,44.42
2022-11-28T18:17:52.669Z,41.45
2022-11-28T18:20:20.084Z,37.55
2022-11-28T18:22:47.340Z,34.22
2022-11-28T18:25:14.050Z,32.72
2022-11-28T18:27:40.821Z,33.95
2022-11-28T18:30:08.457Z,38.85
2022-11-28T18:32:35.101Z,37.00
2022-11-28T18:35:01.672Z,33.83
2022-11-28T18:37:28.295Z,32.70
2022-11-28T18:39:54.854Z,36.00
2022-11-28T18:42:21.545Z,33.30
2022-11-28T18:44:48.081Z,35.80
2022-11-28T18:47:14.618Z,32.45
2022-11-28T18:49:41.358Z,33.80
2022-11-28T18:52:08.042Z,34.78
2022-11-28T18:54:34.943Z,34.33
2022-11-28T18:57:01.528Z,38.20
2022-11-28T18:59:28.596Z,37.03
2022-11-28T19:01:55.245Z,34.90
2022-11-28T19:04:21.912Z,34.83
2022-11-28T19:06:48.682Z,35.95
2022-11-28T19:09:17.254Z,35.17
2022-11-28T19:11:44.833Z,47.70
2022-11-28T19:14:18.938Z,37.95
2022-11-28T19:16:46.997Z,35.05
2022-11-28T19:19:13.663Z,35.90
2022-11-28T19:21:40.506Z,33.30
2022-11-28T19:24:08.563Z,35.13
2022-11-28T19:26:35.864Z,39.15
2022-11-28T19:29:02.701Z,30.58
2022-11-28T19:31:32.418Z,37.65
2022-11-28T19:34:02.125Z,35.10
2022-11-28T19:36:31.028Z,34.15
2022-11-28T19:38:58.811Z,36.80
2022-11-28T19:41:26.770Z,37.42
2022-11-28T19:43:53.403Z,38.33
2022-11-28T19:46:20.696Z,36.60
2022-11-28T19:48:47.485Z,38.70
2022-11-28T19:51:15.883Z,35.30
2022-11-28T19:53:43.666Z,39.78
2022-11-28T19:56:16.387Z,41.03
2022-11-28T19:58:43.727Z,38.10
2022-11-28T20:01:16.132Z,46.80
2022-11-28T20:03:43.560Z,34.17
2022-11-28T20:06:30.962Z,35.88
2022-11-28T20:09:15.743Z,40.90
2022-11-28T20:11:43.746Z,34.90
2022-11-28T20:14:14.155Z,37.70
2022-11-28T20:16:40.974Z,38.67
2022-11-28T20:19:07.843Z,36.67
2022-11-28T20:21:35.432Z,37.00
2022-11-28T20:24:05.170Z,37.72
2022-11-28T20:26:35.147Z,37.13
2022-11-28T20:29:01.764Z,37.38
2022-11-28T20:31:31.201Z,36.45
2022-11-28T20:33:58.545Z,42.30
2022-11-28T20:36:27.033Z,39.53
2022-11-28T20:38:54.983Z,35.00
2022-11-28T20:41:23.152Z,36.47
2022-11-28T20:43:50.621Z,33.53
2022-11-28T20:46:27.115Z,36.85
2022-11-28T20:48:54.356Z,32.28
2022-11-28T20:51:24.963Z,32.30
2022-11-28T20:53:52.430Z,35.30
2022-11-28T20:56:22.215Z,34.78
2022-11-28T20:58:49.911Z,38.67
2022-11-28T21:01:19.457Z,32.53
2022-11-28T21:03:46.577Z,41.53
2022-11-28T21:06:13.685Z,37.03
2022-11-28T21:08:40.488Z,31.48
2022-11-28T21:11:30.501Z,28.90
2022-11-28T21:13:57.912Z,34.03
2022-11-28T21:16:31.305Z,29.90
2022-11-28T21:19:03.175Z,30.65
2022-11-28T21:21:31.958Z,29.95
2022-11-28T21:24:11.418Z,30.67
2022-11-28T21:26:42.388Z,31.95
2022-11-28T21:29:12.571Z,31.33
2022-11-28T21:31:44.551Z,31.27
2022-11-28T21:34:14.462Z,29.23
2022-11-28T21:36:42.142Z,30.02
2022-11-28T21:39:12.705Z,32.53
2022-11-28T21:41:39.314Z,31.08
2022-11-28T21:44:05.897Z,29.52
2022-11-28T21:46:32.507Z,30.20
2022-11-28T21:48:59.028Z,30.90
2022-11-28T21:51:28.579Z,28.80
2022-11-28T21:53:57.309Z,29.85
2022-11-28T21:56:24.431Z,32.30
2022-11-28T21:58:51.358Z,30.77
2022-11-28T22:01:18.463Z,32.47
2022-11-28T22:03:45.162Z,31.60
2022-11-28T22:06:16.457Z,29.75
2022-11-28T22:08:43.374Z,29.98
2022-11-28T22:11:11.338Z,33.33
2022-11-28T22:13:38.801Z,32.70
2022-11-28T22:16:12.850Z,33.22
2022-11-28T22:18:39.649Z,32.33
2022-11-28T22:21:28.646Z,27.92
2022-11-28T22:23:55.314Z,32.70
2022-11-28T22:26:22.132Z,30.65
2022-11-28T22:28:53.635Z,34.17
2022-11-28T22:31:20.986Z,33.17
2022-11-28T22:33:49.909Z,34.40
2022-11-28T22:36:18.813Z,36.70
2022-11-28T22:38:46.445Z,33.55
2022-11-28T22:41:15.468Z,43.95
2022-11-28T22:43:42.414Z,37.47
2022-11-28T22:46:10.176Z,34.38
2022-11-28T22:48:38.534Z,35.45
2022-11-28T22:51:10.468Z,36.63
2022-11-28T22:53:37.312Z,34.70
2022-11-28T22:56:05.450Z,35.15
2022-11-28T22:58:39.443Z,35.63
2022-11-28T23:01:13.837Z,33.83
2022-11-28T23:03:40.845Z,37.38
2022-11-28T23:06:13.286Z,34.28
2022-11-28T23:08:39.968Z,38.28
2022-11-28T23:11:14.934Z,37.83
2022-11-28T23:13:42.164Z,37.05
2022-11-28T23:16:14.370Z,36.33
2022-11-28T23:18:42.019Z,34.97
2022-11-28T23:21:09.119Z,32.17
2022-11-28T23:23:36.826Z,38.22
2022-11-28T23:26:09.545Z,32.95
2022-11-28T23:28:37.168Z,36.78
2022-11-28T23:31:10.290Z,33.78
2022-11-28T23:33:38.075Z,33.22
2022-11-28T23:36:23.884Z,32.45
2022-11-28T23:38:53.723Z,31.95
2022-11-28T23:41:20.403Z,34.35
2022-11-28T23:43:46.995Z,33.80
2022-11-28T23:46:15.043Z,36.03
2022-11-28T23:48:43.686Z,38.72
2022-11-28T23:51:12.518Z,36.42
2022-11-28T23:53:40.577Z,37.05
2022-11-28T23:56:10.350Z,36.05
2022-11-28T23:58:37.544Z,35.43
